BEL4CR EPKK-EBBR
Flight info
| Callsign | BEL4CR |
|---|---|
| Flight time | 1h 40m |
| Altitude | 38000 |
| Route | EMBIK M992 UTEVO DCT ETUDA DCT BEKVI DCT OKG L984 KOMIB DCT ESAMA DCT BATTY |
| Aircraft | A319/M-DE3FGIJ1LORVWY/H |
Departure
| Time | 2026-05-04 17:54 |
|---|---|
| Airport | Kraków John Paul II International Airport (EPKK) |
Arrival
| Time | 2026-05-04 19:35 |
|---|---|
| Airport | Brussels Airport (EBBR) |
| Time | Latitude | Longitude | Altitude | Speed | Heading |
|---|---|---|---|---|---|
| 2026-05-04 17:21 | 50.07271 | 19.79780 | 800 ft | 0 kts | 170° |
| 2026-05-04 17:46 | 50.07283 | 19.79777 | 800 ft | 4 kts | 169° |
| 2026-05-04 17:46 | 50.07309 | 19.79768 | 800 ft | 4 kts | 166° |
| 2026-05-04 17:46 | 50.07334 | 19.79758 | 800 ft | 2 kts | 168° |
| 2026-05-04 17:46 | 50.07353 | 19.79748 | 800 ft | 4 kts | 118° |
| 2026-05-04 17:47 | 50.07355 | 19.79716 | 800 ft | 2 kts | 77° |
| 2026-05-04 17:47 | 50.07354 | 19.79713 | 800 ft | 0 kts | 78° |
| 2026-05-04 17:49 | 50.07355 | 19.79714 | 800 ft | 1 kts | 78° |
| 2026-05-04 17:49 | 50.07359 | 19.79746 | 800 ft | 5 kts | 78° |
| 2026-05-04 17:49 | 50.07370 | 19.79824 | 800 ft | 9 kts | 78° |
| 2026-05-04 17:50 | 50.07386 | 19.79939 | 800 ft | 11 kts | 77° |
| 2026-05-04 17:50 | 50.07404 | 19.80064 | 800 ft | 12 kts | 77° |
| 2026-05-04 17:50 | 50.07424 | 19.80199 | 800 ft | 14 kts | 77° |
| 2026-05-04 17:50 | 50.07452 | 19.80358 | 800 ft | 15 kts | 54° |
| 2026-05-04 17:51 | 50.07549 | 19.80413 | 800 ft | 15 kts | 15° |
| 2026-05-04 17:51 | 50.07653 | 19.80402 | 800 ft | 15 kts | 348° |
| 2026-05-04 17:51 | 50.07759 | 19.80365 | 800 ft | 16 kts | 348° |
| 2026-05-04 17:51 | 50.07843 | 19.80337 | 800 ft | 4 kts | 348° |
| 2026-05-04 17:52 | 50.07846 | 19.80336 | 800 ft | 1 kts | 348° |
| 2026-05-04 17:52 | 50.07857 | 19.80332 | 800 ft | 4 kts | 347° |
| 2026-05-04 17:52 | 50.07906 | 19.80315 | 800 ft | 11 kts | 347° |
| 2026-05-04 17:52 | 50.07996 | 19.80283 | 799 ft | 14 kts | 340° |
| 2026-05-04 17:53 | 50.08008 | 19.80167 | 801 ft | 10 kts | 258° |
| 2026-05-04 17:53 | 50.07992 | 19.80056 | 801 ft | 11 kts | 258° |
| 2026-05-04 17:53 | 50.07978 | 19.79955 | 800 ft | 0 kts | 259° |
| 2026-05-04 17:54 | 50.07957 | 19.79800 | 800 ft | 49 kts | 258° |
| 2026-05-04 17:54 | 50.07830 | 19.78896 | 803 ft | 119 kts | 258° |
| 2026-05-04 17:54 | 50.07630 | 19.77433 | 1106 ft | 142 kts | 258° |
| 2026-05-04 17:54 | 50.07421 | 19.75961 | 1778 ft | 139 kts | 257° |
| 2026-05-04 17:55 | 50.07206 | 19.74488 | 2359 ft | 140 kts | 254° |
| 2026-05-04 17:55 | 50.06996 | 19.73008 | 2983 ft | 140 kts | 254° |
| 2026-05-04 17:55 | 50.06790 | 19.71535 | 3591 ft | 139 kts | 253° |
| 2026-05-04 17:55 | 50.06584 | 19.70059 | 4147 ft | 144 kts | 253° |
| 2026-05-04 17:56 | 50.06413 | 19.68403 | 4481 ft | 170 kts | 269° |
| 2026-05-04 17:56 | 50.06720 | 19.66469 | 4792 ft | 196 kts | 280° |
| 2026-05-04 17:56 | 50.07026 | 19.64269 | 5089 ft | 221 kts | 277° |
| 2026-05-04 17:56 | 50.07264 | 19.61784 | 5520 ft | 244 kts | 274° |
| 2026-05-04 17:57 | 50.07464 | 19.59052 | 6148 ft | 261 kts | 274° |
| 2026-05-04 17:57 | 50.07659 | 19.56250 | 7008 ft | 266 kts | 275° |
| 2026-05-04 17:57 | 50.07866 | 19.53364 | 7914 ft | 271 kts | 274° |
| 2026-05-04 17:57 | 50.08084 | 19.50435 | 8841 ft | 274 kts | 275° |
| 2026-05-04 17:58 | 50.08314 | 19.47459 | 9772 ft | 279 kts | 275° |
| 2026-05-04 17:58 | 50.08553 | 19.44411 | 10394 ft | 293 kts | 275° |
| 2026-05-04 17:58 | 50.08810 | 19.41134 | 10726 ft | 316 kts | 275° |
| 2026-05-04 17:58 | 50.09087 | 19.37683 | 11368 ft | 326 kts | 275° |
| 2026-05-04 17:59 | 50.09374 | 19.34157 | 12161 ft | 330 kts | 275° |
| 2026-05-04 17:59 | 50.09661 | 19.30597 | 12992 ft | 333 kts | 274° |
| 2026-05-04 17:59 | 50.10236 | 19.23380 | 14535 ft | 339 kts | 274° |
| 2026-05-04 18:00 | 50.10524 | 19.19717 | 15249 ft | 342 kts | 274° |
| 2026-05-04 18:00 | 50.10814 | 19.16024 | 15955 ft | 345 kts | 274° |
| 2026-05-04 18:00 | 50.11107 | 19.12288 | 16663 ft | 349 kts | 274° |
| 2026-05-04 18:00 | 50.11400 | 19.08523 | 17383 ft | 352 kts | 274° |
| 2026-05-04 18:01 | 50.11694 | 19.04701 | 18098 ft | 355 kts | 274° |
| 2026-05-04 18:01 | 50.11987 | 19.00890 | 18719 ft | 358 kts | 274° |
| 2026-05-04 18:01 | 50.12282 | 18.97019 | 19290 ft | 362 kts | 275° |
| 2026-05-04 18:02 | 50.12876 | 18.89135 | 20452 ft | 370 kts | 275° |
| 2026-05-04 18:02 | 50.13175 | 18.85126 | 21014 ft | 374 kts | 275° |
| 2026-05-04 18:02 | 50.13479 | 18.81073 | 21581 ft | 378 kts | 275° |
| 2026-05-04 18:02 | 50.13784 | 18.76983 | 22146 ft | 382 kts | 276° |
| 2026-05-04 18:03 | 50.14095 | 18.72844 | 22709 ft | 386 kts | 276° |
| 2026-05-04 18:03 | 50.14410 | 18.68662 | 23254 ft | 390 kts | 276° |
| 2026-05-04 18:03 | 50.14724 | 18.64435 | 23749 ft | 394 kts | 276° |
| 2026-05-04 18:03 | 50.15037 | 18.60177 | 24197 ft | 397 kts | 276° |
| 2026-05-04 18:04 | 50.15348 | 18.55886 | 24700 ft | 398 kts | 276° |
| 2026-05-04 18:04 | 50.15659 | 18.51593 | 25171 ft | 400 kts | 276° |
| 2026-05-04 18:04 | 50.16283 | 18.42924 | 26065 ft | 404 kts | 276° |
| 2026-05-04 18:05 | 50.16598 | 18.38549 | 26501 ft | 407 kts | 276° |
| 2026-05-04 18:05 | 50.16906 | 18.34210 | 26933 ft | 409 kts | 276° |
| 2026-05-04 18:05 | 50.17217 | 18.29790 | 27367 ft | 411 kts | 276° |
| 2026-05-04 18:05 | 50.17529 | 18.25344 | 27791 ft | 414 kts | 276° |
| 2026-05-04 18:06 | 50.18151 | 18.16405 | 27964 ft | 414 kts | 276° |
| 2026-05-04 18:06 | 50.18458 | 18.11940 | 27965 ft | 414 kts | 276° |
| 2026-05-04 18:06 | 50.18764 | 18.07471 | 27963 ft | 414 kts | 276° |
| 2026-05-04 18:07 | 50.19069 | 18.03002 | 27963 ft | 414 kts | 276° |
| 2026-05-04 18:07 | 50.19372 | 17.98542 | 27963 ft | 414 kts | 276° |
| 2026-05-04 18:07 | 50.19672 | 17.94070 | 27962 ft | 414 kts | 276° |
| 2026-05-04 18:07 | 50.19970 | 17.89605 | 27963 ft | 414 kts | 276° |
| 2026-05-04 18:08 | 50.20267 | 17.85136 | 27962 ft | 414 kts | 276° |
| 2026-05-04 18:08 | 50.20463 | 17.82179 | 27961 ft | 414 kts | 276° |
| 2026-05-04 18:08 | 50.20757 | 17.77711 | 27961 ft | 414 kts | 276° |
| 2026-05-04 18:08 | 50.20956 | 17.73231 | 27962 ft | 414 kts | 270° |
| 2026-05-04 18:09 | 50.20968 | 17.64183 | 28761 ft | 418 kts | 270° |
| 2026-05-04 18:09 | 50.20973 | 17.55069 | 29610 ft | 422 kts | 270° |
| 2026-05-04 18:10 | 50.20720 | 17.50489 | 29988 ft | 426 kts | 261° |
| 2026-05-04 18:10 | 50.20009 | 17.45997 | 30320 ft | 429 kts | 255° |
| 2026-05-04 18:10 | 50.19151 | 17.41526 | 30643 ft | 431 kts | 255° |
| 2026-05-04 18:10 | 50.18288 | 17.37040 | 30977 ft | 432 kts | 255° |
| 2026-05-04 18:11 | 50.17421 | 17.32537 | 31302 ft | 434 kts | 255° |
| 2026-05-04 18:11 | 50.16552 | 17.28023 | 31612 ft | 435 kts | 255° |
| 2026-05-04 18:11 | 50.15680 | 17.23506 | 32053 ft | 434 kts | 255° |
| 2026-05-04 18:11 | 50.14808 | 17.19012 | 32525 ft | 432 kts | 255° |
| 2026-05-04 18:12 | 50.13938 | 17.14543 | 33027 ft | 429 kts | 254° |
| 2026-05-04 18:12 | 50.13072 | 17.10106 | 33522 ft | 426 kts | 254° |
| 2026-05-04 18:12 | 50.12212 | 17.05700 | 34006 ft | 424 kts | 255° |
| 2026-05-04 18:12 | 50.11354 | 17.01308 | 34416 ft | 423 kts | 255° |
| 2026-05-04 18:13 | 50.10496 | 16.96930 | 34807 ft | 422 kts | 254° |
| 2026-05-04 18:13 | 50.09639 | 16.92568 | 35168 ft | 421 kts | 254° |
| 2026-05-04 18:13 | 50.07920 | 16.83848 | 35833 ft | 421 kts | 254° |
| 2026-05-04 18:14 | 50.07059 | 16.79502 | 36156 ft | 420 kts | 254° |
| 2026-05-04 18:14 | 50.06201 | 16.75163 | 36490 ft | 420 kts | 254° |
| 2026-05-04 18:14 | 50.05341 | 16.70821 | 36814 ft | 419 kts | 254° |
| 2026-05-04 18:15 | 50.03620 | 16.62168 | 37442 ft | 418 kts | 254° |
| 2026-05-04 18:15 | 50.01941 | 16.53522 | 37933 ft | 417 kts | 258° |
| 2026-05-04 18:16 | 50.01575 | 16.44594 | 37970 ft | 415 kts | 274° |
| 2026-05-04 18:16 | 50.01959 | 16.35647 | 37961 ft | 415 kts | 274° |
| 2026-05-04 18:17 | 50.02471 | 16.22228 | 37955 ft | 415 kts | 273° |
| 2026-05-04 18:18 | 50.02901 | 16.08857 | 37969 ft | 414 kts | 272° |
| 2026-05-04 18:18 | 50.03104 | 15.99860 | 37962 ft | 413 kts | 272° |
| 2026-05-04 18:19 | 50.03405 | 15.86531 | 37958 ft | 413 kts | 272° |
| 2026-05-04 18:19 | 50.03620 | 15.77614 | 37954 ft | 412 kts | 272° |
| 2026-05-04 18:20 | 50.03830 | 15.68707 | 37960 ft | 412 kts | 272° |
| 2026-05-04 18:20 | 50.04026 | 15.59791 | 37959 ft | 412 kts | 271° |
| 2026-05-04 18:21 | 50.04210 | 15.50891 | 37952 ft | 412 kts | 271° |
| 2026-05-04 18:21 | 50.04384 | 15.41989 | 37954 ft | 412 kts | 271° |
| 2026-05-04 18:22 | 50.04559 | 15.33094 | 37953 ft | 411 kts | 271° |
| 2026-05-04 18:22 | 50.04733 | 15.24196 | 37958 ft | 411 kts | 271° |
| 2026-05-04 18:23 | 50.04891 | 15.15295 | 37953 ft | 412 kts | 271° |
| 2026-05-04 18:23 | 50.05040 | 15.06387 | 37952 ft | 412 kts | 271° |
| 2026-05-04 18:24 | 50.05188 | 14.97469 | 37952 ft | 412 kts | 271° |
| 2026-05-04 18:24 | 50.05327 | 14.88568 | 37954 ft | 413 kts | 271° |
| 2026-05-04 18:25 | 50.05457 | 14.79610 | 37951 ft | 413 kts | 271° |
| 2026-05-04 18:25 | 50.05582 | 14.70677 | 37967 ft | 413 kts | 270° |
| 2026-05-04 18:26 | 50.05706 | 14.61752 | 37965 ft | 412 kts | 270° |
| 2026-05-04 18:26 | 50.05819 | 14.52838 | 37963 ft | 412 kts | 270° |
| 2026-05-04 18:27 | 50.05927 | 14.43934 | 37962 ft | 412 kts | 270° |
| 2026-05-04 18:27 | 50.06025 | 14.35025 | 37960 ft | 411 kts | 270° |
| 2026-05-04 18:28 | 50.06123 | 14.26126 | 37967 ft | 411 kts | 270° |
| 2026-05-04 18:28 | 50.06213 | 14.17227 | 37963 ft | 411 kts | 270° |
| 2026-05-04 18:29 | 50.06296 | 14.08342 | 37967 ft | 411 kts | 269° |
| 2026-05-04 18:29 | 50.06366 | 13.99458 | 37974 ft | 410 kts | 269° |
| 2026-05-04 18:30 | 50.06456 | 13.86203 | 37974 ft | 410 kts | 269° |
| 2026-05-04 18:31 | 50.06511 | 13.77320 | 37981 ft | 410 kts | 269° |
| 2026-05-04 18:31 | 50.06559 | 13.68376 | 37962 ft | 411 kts | 269° |
| 2026-05-04 18:32 | 50.06604 | 13.59557 | 37956 ft | 411 kts | 269° |
| 2026-05-04 18:32 | 50.06638 | 13.50584 | 37957 ft | 412 kts | 269° |
| 2026-05-04 18:33 | 50.06663 | 13.41679 | 37962 ft | 412 kts | 269° |
| 2026-05-04 18:33 | 50.06684 | 13.32816 | 37965 ft | 412 kts | 269° |
| 2026-05-04 18:34 | 50.06704 | 13.23834 | 37966 ft | 412 kts | 269° |
| 2026-05-04 18:34 | 50.06715 | 13.14975 | 37969 ft | 412 kts | 269° |
| 2026-05-04 18:35 | 50.06716 | 13.06052 | 37981 ft | 412 kts | 268° |
| 2026-05-04 18:35 | 50.06709 | 12.97075 | 37983 ft | 412 kts | 268° |
| 2026-05-04 18:36 | 50.06699 | 12.88150 | 38001 ft | 412 kts | 268° |
| 2026-05-04 18:36 | 50.06680 | 12.79279 | 37994 ft | 412 kts | 268° |
| 2026-05-04 18:37 | 50.06655 | 12.70360 | 37990 ft | 412 kts | 268° |
| 2026-05-04 18:37 | 50.06621 | 12.61429 | 37986 ft | 412 kts | 268° |
| 2026-05-04 18:38 | 50.06579 | 12.52450 | 37978 ft | 412 kts | 268° |
| 2026-05-04 18:38 | 50.06533 | 12.43586 | 37975 ft | 412 kts | 268° |
| 2026-05-04 18:39 | 50.06545 | 12.34663 | 37979 ft | 413 kts | 269° |
| 2026-05-04 18:39 | 50.06692 | 12.25729 | 37978 ft | 413 kts | 270° |
| 2026-05-04 18:40 | 50.06840 | 12.16799 | 37978 ft | 413 kts | 269° |
| 2026-05-04 18:40 | 50.06952 | 12.07869 | 37980 ft | 413 kts | 269° |
| 2026-05-04 18:41 | 50.07037 | 11.98933 | 37979 ft | 413 kts | 269° |
| 2026-05-04 18:41 | 50.07107 | 11.89998 | 37995 ft | 413 kts | 269° |
| 2026-05-04 18:42 | 50.07167 | 11.81068 | 37993 ft | 412 kts | 268° |
| 2026-05-04 18:42 | 50.07228 | 11.72146 | 37991 ft | 412 kts | 269° |
| 2026-05-04 18:43 | 50.07286 | 11.63220 | 37986 ft | 412 kts | 268° |
| 2026-05-04 18:43 | 50.07343 | 11.54304 | 37982 ft | 412 kts | 268° |
| 2026-05-04 18:44 | 50.07390 | 11.45381 | 37984 ft | 412 kts | 268° |
| 2026-05-04 18:44 | 50.07426 | 11.36450 | 37980 ft | 413 kts | 268° |
| 2026-05-04 18:45 | 50.07456 | 11.27515 | 37971 ft | 413 kts | 268° |
| 2026-05-04 18:45 | 50.07479 | 11.18636 | 37975 ft | 413 kts | 268° |
| 2026-05-04 18:46 | 50.07499 | 11.09699 | 37979 ft | 413 kts | 268° |
| 2026-05-04 18:46 | 50.07516 | 11.00755 | 37990 ft | 413 kts | 268° |
| 2026-05-04 18:47 | 50.07529 | 10.91808 | 37985 ft | 413 kts | 268° |
| 2026-05-04 18:47 | 50.07530 | 10.82867 | 37983 ft | 413 kts | 267° |
| 2026-05-04 18:48 | 50.07517 | 10.73925 | 37978 ft | 413 kts | 267° |
| 2026-05-04 18:48 | 50.07507 | 10.64987 | 37981 ft | 413 kts | 267° |
| 2026-05-04 18:49 | 50.07486 | 10.56045 | 37985 ft | 413 kts | 267° |
| 2026-05-04 18:49 | 50.07453 | 10.47105 | 37996 ft | 413 kts | 267° |
| 2026-05-04 18:50 | 50.07416 | 10.38170 | 37986 ft | 413 kts | 267° |
| 2026-05-04 18:50 | 50.07370 | 10.29231 | 37983 ft | 413 kts | 266° |
| 2026-05-04 18:51 | 50.08115 | 10.20350 | 37975 ft | 419 kts | 283° |
| 2026-05-04 18:51 | 50.09862 | 10.11672 | 37978 ft | 420 kts | 283° |
| 2026-05-04 18:52 | 50.11592 | 10.02983 | 37990 ft | 420 kts | 283° |
| 2026-05-04 18:52 | 50.13312 | 9.94261 | 37982 ft | 421 kts | 283° |
| 2026-05-04 18:53 | 50.15036 | 9.85538 | 37983 ft | 422 kts | 283° |
| 2026-05-04 18:53 | 50.16756 | 9.76792 | 37984 ft | 422 kts | 283° |
| 2026-05-04 18:54 | 50.18177 | 9.69521 | 37991 ft | 422 kts | 283° |
| 2026-05-04 18:54 | 50.19884 | 9.60749 | 37997 ft | 423 kts | 283° |
| 2026-05-04 18:55 | 50.21580 | 9.51960 | 37992 ft | 423 kts | 283° |
| 2026-05-04 18:55 | 50.24126 | 9.38743 | 37990 ft | 424 kts | 282° |
| 2026-05-04 18:56 | 50.25814 | 9.29923 | 37989 ft | 424 kts | 282° |
| 2026-05-04 18:56 | 50.27500 | 9.21076 | 38006 ft | 425 kts | 282° |
| 2026-05-04 18:57 | 50.29174 | 9.12222 | 38002 ft | 425 kts | 282° |
| 2026-05-04 18:57 | 50.30852 | 9.03344 | 38002 ft | 426 kts | 282° |
| 2026-05-04 18:58 | 50.32529 | 8.94463 | 37994 ft | 426 kts | 282° |
| 2026-05-04 18:58 | 50.34158 | 8.85571 | 37991 ft | 423 kts | 278° |
| 2026-05-04 18:59 | 50.35214 | 8.76534 | 37996 ft | 422 kts | 276° |
| 2026-05-04 18:59 | 50.36253 | 8.67486 | 37922 ft | 421 kts | 276° |
| 2026-05-04 19:00 | 50.36766 | 8.63017 | 37649 ft | 412 kts | 276° |
| 2026-05-04 19:00 | 50.37266 | 8.58649 | 37367 ft | 404 kts | 276° |
| 2026-05-04 19:00 | 50.37754 | 8.54363 | 37102 ft | 395 kts | 276° |
| 2026-05-04 19:00 | 50.38227 | 8.50172 | 36838 ft | 387 kts | 275° |
| 2026-05-04 19:01 | 50.38688 | 8.46057 | 36574 ft | 379 kts | 275° |
| 2026-05-04 19:01 | 50.39136 | 8.42034 | 36311 ft | 372 kts | 275° |
| 2026-05-04 19:01 | 50.39578 | 8.38079 | 36052 ft | 366 kts | 275° |
| 2026-05-04 19:01 | 50.40014 | 8.34172 | 35797 ft | 363 kts | 275° |
| 2026-05-04 19:02 | 50.40451 | 8.30270 | 35561 ft | 363 kts | 274° |
| 2026-05-04 19:02 | 50.40881 | 8.26378 | 35316 ft | 363 kts | 274° |
| 2026-05-04 19:02 | 50.41308 | 8.22476 | 35067 ft | 363 kts | 274° |
| 2026-05-04 19:02 | 50.41734 | 8.18587 | 34824 ft | 363 kts | 274° |
| 2026-05-04 19:03 | 50.42161 | 8.14687 | 34584 ft | 362 kts | 274° |
| 2026-05-04 19:03 | 50.42585 | 8.10797 | 34343 ft | 362 kts | 274° |
| 2026-05-04 19:03 | 50.43009 | 8.06902 | 34103 ft | 362 kts | 274° |
| 2026-05-04 19:03 | 50.43429 | 8.03013 | 33846 ft | 362 kts | 274° |
| 2026-05-04 19:04 | 50.43847 | 7.99124 | 33569 ft | 362 kts | 274° |
| 2026-05-04 19:04 | 50.44264 | 7.95234 | 33298 ft | 363 kts | 274° |
| 2026-05-04 19:04 | 50.44680 | 7.91320 | 33027 ft | 364 kts | 274° |
| 2026-05-04 19:04 | 50.45096 | 7.87401 | 32773 ft | 365 kts | 273° |
| 2026-05-04 19:05 | 50.45510 | 7.83508 | 32491 ft | 368 kts | 273° |
| 2026-05-04 19:05 | 50.45941 | 7.79397 | 31828 ft | 391 kts | 274° |
| 2026-05-04 19:05 | 50.46388 | 7.75027 | 31170 ft | 419 kts | 274° |
| 2026-05-04 19:05 | 50.46862 | 7.70444 | 30540 ft | 429 kts | 274° |
| 2026-05-04 19:06 | 50.47352 | 7.65818 | 29906 ft | 429 kts | 275° |
| 2026-05-04 19:06 | 50.47847 | 7.61214 | 29199 ft | 427 kts | 275° |
| 2026-05-04 19:06 | 50.48335 | 7.56661 | 28514 ft | 432 kts | 275° |
| 2026-05-04 19:06 | 50.48828 | 7.52001 | 27838 ft | 432 kts | 275° |
| 2026-05-04 19:07 | 50.49310 | 7.47368 | 27221 ft | 429 kts | 275° |
| 2026-05-04 19:07 | 50.49792 | 7.42686 | 27005 ft | 428 kts | 275° |
| 2026-05-04 19:07 | 50.50259 | 7.38135 | 26989 ft | 427 kts | 275° |
| 2026-05-04 19:07 | 50.50736 | 7.33475 | 26789 ft | 424 kts | 275° |
| 2026-05-04 19:08 | 50.51192 | 7.28993 | 26089 ft | 420 kts | 275° |
| 2026-05-04 19:08 | 50.51650 | 7.24489 | 25408 ft | 416 kts | 275° |
| 2026-05-04 19:08 | 50.52105 | 7.20023 | 24743 ft | 412 kts | 276° |
| 2026-05-04 19:08 | 50.52553 | 7.15600 | 24090 ft | 408 kts | 276° |
| 2026-05-04 19:09 | 50.52995 | 7.11205 | 23420 ft | 405 kts | 276° |
| 2026-05-04 19:09 | 50.53429 | 7.06850 | 22703 ft | 402 kts | 276° |
| 2026-05-04 19:09 | 50.53859 | 7.02524 | 22143 ft | 400 kts | 276° |
| 2026-05-04 19:09 | 50.54284 | 6.98228 | 21962 ft | 400 kts | 276° |
| 2026-05-04 19:10 | 50.54711 | 6.93879 | 21993 ft | 401 kts | 276° |
| 2026-05-04 19:10 | 50.55132 | 6.89559 | 21992 ft | 402 kts | 276° |
| 2026-05-04 19:10 | 50.55558 | 6.85190 | 21980 ft | 402 kts | 276° |
| 2026-05-04 19:10 | 50.55981 | 6.80844 | 21981 ft | 402 kts | 276° |
| 2026-05-04 19:11 | 50.56410 | 6.76498 | 21981 ft | 402 kts | 276° |
| 2026-05-04 19:11 | 50.56834 | 6.72145 | 21979 ft | 402 kts | 276° |
| 2026-05-04 19:11 | 50.57253 | 6.67802 | 21969 ft | 402 kts | 276° |
| 2026-05-04 19:11 | 50.57668 | 6.63452 | 21970 ft | 402 kts | 276° |
| 2026-05-04 19:12 | 50.58080 | 6.59094 | 21973 ft | 402 kts | 276° |
| 2026-05-04 19:12 | 50.58900 | 6.50393 | 21986 ft | 403 kts | 276° |
| 2026-05-04 19:12 | 50.59312 | 6.46025 | 21973 ft | 405 kts | 276° |
| 2026-05-04 19:13 | 50.59726 | 6.41639 | 21972 ft | 406 kts | 276° |
| 2026-05-04 19:13 | 50.60139 | 6.37248 | 21972 ft | 406 kts | 276° |
| 2026-05-04 19:13 | 50.60550 | 6.32847 | 21970 ft | 406 kts | 276° |
| 2026-05-04 19:13 | 50.60959 | 6.28453 | 21969 ft | 406 kts | 276° |
| 2026-05-04 19:14 | 50.61367 | 6.24058 | 21969 ft | 406 kts | 275° |
| 2026-05-04 19:14 | 50.61773 | 6.19661 | 21970 ft | 406 kts | 275° |
| 2026-05-04 19:14 | 50.62175 | 6.15267 | 21969 ft | 406 kts | 275° |
| 2026-05-04 19:14 | 50.62575 | 6.10870 | 21970 ft | 406 kts | 275° |
| 2026-05-04 19:15 | 50.62972 | 6.06472 | 21970 ft | 406 kts | 275° |
| 2026-05-04 19:15 | 50.63369 | 6.02070 | 21969 ft | 407 kts | 275° |
| 2026-05-04 19:15 | 50.63768 | 5.97651 | 21970 ft | 407 kts | 275° |
| 2026-05-04 19:15 | 50.64166 | 5.93235 | 21971 ft | 407 kts | 275° |
| 2026-05-04 19:16 | 50.64564 | 5.88818 | 21971 ft | 408 kts | 276° |
| 2026-05-04 19:16 | 50.65231 | 5.84460 | 21971 ft | 411 kts | 286° |
| 2026-05-04 19:16 | 50.66379 | 5.80320 | 21973 ft | 414 kts | 295° |
| 2026-05-04 19:16 | 50.67698 | 5.76289 | 21972 ft | 414 kts | 294° |
| 2026-05-04 19:17 | 50.69008 | 5.72249 | 21972 ft | 414 kts | 294° |
| 2026-05-04 19:17 | 50.70312 | 5.68198 | 21973 ft | 414 kts | 294° |
| 2026-05-04 19:17 | 50.71606 | 5.64150 | 21957 ft | 413 kts | 294° |
| 2026-05-04 19:17 | 50.72891 | 5.60123 | 21451 ft | 408 kts | 294° |
| 2026-05-04 19:18 | 50.74162 | 5.56134 | 20826 ft | 406 kts | 295° |
| 2026-05-04 19:18 | 50.75429 | 5.52166 | 20243 ft | 404 kts | 295° |
| 2026-05-04 19:18 | 50.76694 | 5.48202 | 19694 ft | 403 kts | 295° |
| 2026-05-04 19:18 | 50.77948 | 5.44266 | 19155 ft | 400 kts | 295° |
| 2026-05-04 19:19 | 50.79191 | 5.40348 | 18639 ft | 398 kts | 295° |
| 2026-05-04 19:19 | 50.80424 | 5.36447 | 18104 ft | 395 kts | 296° |
| 2026-05-04 19:19 | 50.81647 | 5.32578 | 17535 ft | 392 kts | 296° |
| 2026-05-04 19:19 | 50.82861 | 5.28733 | 16983 ft | 389 kts | 296° |
| 2026-05-04 19:20 | 50.84065 | 5.24917 | 16438 ft | 386 kts | 296° |
| 2026-05-04 19:20 | 50.85254 | 5.21134 | 15903 ft | 382 kts | 296° |
| 2026-05-04 19:20 | 50.86409 | 5.17369 | 15371 ft | 379 kts | 293° |
| 2026-05-04 19:20 | 50.87006 | 5.13350 | 14890 ft | 375 kts | 273° |
| 2026-05-04 19:21 | 50.86693 | 5.09292 | 14418 ft | 372 kts | 255° |
| 2026-05-04 19:21 | 50.85938 | 5.05395 | 13877 ft | 369 kts | 253° |
| 2026-05-04 19:21 | 50.85161 | 5.01595 | 13313 ft | 366 kts | 253° |
| 2026-05-04 19:21 | 50.84373 | 4.97774 | 12732 ft | 363 kts | 253° |
| 2026-05-04 19:22 | 50.83592 | 4.93996 | 12146 ft | 360 kts | 253° |
| 2026-05-04 19:22 | 50.82817 | 4.90252 | 11578 ft | 357 kts | 253° |
| 2026-05-04 19:22 | 50.82047 | 4.86530 | 10999 ft | 354 kts | 253° |
| 2026-05-04 19:22 | 50.81289 | 4.82870 | 10641 ft | 345 kts | 253° |
| 2026-05-04 19:23 | 50.80554 | 4.79326 | 10389 ft | 334 kts | 253° |
| 2026-05-04 19:23 | 50.79842 | 4.75896 | 10149 ft | 323 kts | 253° |
| 2026-05-04 19:23 | 50.79149 | 4.72565 | 9907 ft | 315 kts | 253° |
| 2026-05-04 19:23 | 50.78474 | 4.69326 | 9650 ft | 306 kts | 253° |
| 2026-05-04 19:24 | 50.77817 | 4.66168 | 9387 ft | 299 kts | 253° |
| 2026-05-04 19:24 | 50.77174 | 4.63090 | 9128 ft | 292 kts | 253° |
| 2026-05-04 19:24 | 50.76539 | 4.60074 | 8863 ft | 285 kts | 252° |
| 2026-05-04 19:24 | 50.75921 | 4.57139 | 8601 ft | 279 kts | 252° |
| 2026-05-04 19:25 | 50.75316 | 4.54268 | 8352 ft | 272 kts | 252° |
| 2026-05-04 19:25 | 50.74725 | 4.51460 | 8094 ft | 266 kts | 252° |
| 2026-05-04 19:25 | 50.74149 | 4.48717 | 7836 ft | 261 kts | 253° |
| 2026-05-04 19:25 | 50.73583 | 4.46035 | 7595 ft | 255 kts | 253° |
| 2026-05-04 19:26 | 50.73027 | 4.43404 | 7339 ft | 251 kts | 253° |
| 2026-05-04 19:26 | 50.72474 | 4.40808 | 7014 ft | 249 kts | 252° |
| 2026-05-04 19:26 | 50.71925 | 4.38222 | 6683 ft | 247 kts | 252° |
| 2026-05-04 19:26 | 50.71379 | 4.35654 | 6334 ft | 247 kts | 252° |
| 2026-05-04 19:27 | 50.70837 | 4.33095 | 5981 ft | 245 kts | 252° |
| 2026-05-04 19:27 | 50.70300 | 4.30551 | 5623 ft | 244 kts | 252° |
| 2026-05-04 19:27 | 50.69764 | 4.28013 | 5273 ft | 243 kts | 252° |
| 2026-05-04 19:27 | 50.69234 | 4.25494 | 4935 ft | 242 kts | 252° |
| 2026-05-04 19:28 | 50.68719 | 4.22979 | 4586 ft | 240 kts | 256° |
| 2026-05-04 19:28 | 50.68671 | 4.20415 | 4373 ft | 229 kts | 283° |
| 2026-05-04 19:28 | 50.69276 | 4.18187 | 4232 ft | 216 kts | 308° |
| 2026-05-04 19:28 | 50.70355 | 4.16643 | 4035 ft | 207 kts | 333° |
| 2026-05-04 19:29 | 50.71713 | 4.15913 | 3982 ft | 206 kts | 350° |
| 2026-05-04 19:29 | 50.73123 | 4.15441 | 3982 ft | 208 kts | 349° |
| 2026-05-04 19:29 | 50.74536 | 4.14952 | 3982 ft | 208 kts | 349° |
| 2026-05-04 19:29 | 50.75954 | 4.14460 | 3986 ft | 208 kts | 349° |
| 2026-05-04 19:30 | 50.77366 | 4.13967 | 3980 ft | 208 kts | 349° |
| 2026-05-04 19:30 | 50.78781 | 4.13517 | 3975 ft | 207 kts | 356° |
| 2026-05-04 19:30 | 50.80163 | 4.13934 | 3918 ft | 205 kts | 31° |
| 2026-05-04 19:30 | 50.81132 | 4.15542 | 3916 ft | 205 kts | 61° |
| 2026-05-04 19:31 | 50.81655 | 4.17638 | 3974 ft | 207 kts | 66° |
| 2026-05-04 19:31 | 50.82236 | 4.19717 | 3761 ft | 207 kts | 64° |
| 2026-05-04 19:31 | 50.82835 | 4.21785 | 3441 ft | 207 kts | 64° |
| 2026-05-04 19:31 | 50.83438 | 4.23863 | 3124 ft | 208 kts | 64° |
| 2026-05-04 19:32 | 50.84039 | 4.25911 | 2913 ft | 204 kts | 63° |
| 2026-05-04 19:32 | 50.84680 | 4.27911 | 2624 ft | 204 kts | 60° |
| 2026-05-04 19:32 | 50.85335 | 4.29906 | 2342 ft | 204 kts | 62° |
| 2026-05-04 19:32 | 50.85947 | 4.31922 | 2073 ft | 202 kts | 63° |
| 2026-05-04 19:33 | 50.86531 | 4.33932 | 1759 ft | 200 kts | 63° |
| 2026-05-04 19:33 | 50.87099 | 4.35896 | 1525 ft | 189 kts | 63° |
| 2026-05-04 19:33 | 50.87628 | 4.37715 | 1295 ft | 176 kts | 63° |
| 2026-05-04 19:33 | 50.88114 | 4.39386 | 1094 ft | 155 kts | 63° |
| 2026-05-04 19:34 | 50.88526 | 4.40853 | 856 ft | 140 kts | 63° |
| 2026-05-04 19:34 | 50.88897 | 4.42215 | 643 ft | 125 kts | 61° |
| 2026-05-04 19:34 | 50.89254 | 4.43391 | 476 ft | 121 kts | 62° |
| 2026-05-04 19:34 | 50.89617 | 4.44631 | 357 ft | 122 kts | 64° |
| 2026-05-04 19:35 | 50.89973 | 4.45856 | 203 ft | 123 kts | 65° |
| 2026-05-04 19:35 | 50.90306 | 4.46996 | 126 ft | 98 kts | 66° |
| 2026-05-04 19:35 | 50.90495 | 4.47653 | 124 ft | 49 kts | 65° |
| 2026-05-04 19:35 | 50.90612 | 4.48061 | 118 ft | 29 kts | 65° |
| 2026-05-04 19:36 | 50.90651 | 4.48325 | 120 ft | 19 kts | 113° |
| 2026-05-04 19:36 | 50.90600 | 4.48453 | 119 ft | 12 kts | 127° |
| 2026-05-04 19:36 | 50.90541 | 4.48441 | 119 ft | 11 kts | 249° |
| 2026-05-04 19:36 | 50.90509 | 4.48330 | 118 ft | 11 kts | 245° |
| 2026-05-04 19:37 | 50.90475 | 4.48214 | 118 ft | 12 kts | 245° |
| 2026-05-04 19:37 | 50.90439 | 4.48091 | 121 ft | 13 kts | 245° |
| 2026-05-04 19:37 | 50.90378 | 4.48047 | 120 ft | 11 kts | 145° |
| 2026-05-04 19:37 | 50.90362 | 4.48154 | 118 ft | 8 kts | 131° |
| 2026-05-04 19:38 | 50.90309 | 4.48193 | 120 ft | 9 kts | 155° |
| 2026-05-04 19:38 | 50.90298 | 4.48201 | 119 ft | 1 kts | 156° |
| 2026-05-04 19:38 | 50.90291 | 4.48206 | 120 ft | 0 kts | 155° |